createdAt,value
2018-12-23T00:01:28.012Z,22.00
2018-12-23T00:41:41.279Z,21.70
2018-12-23T00:55:04.047Z,21.70
2018-12-23T01:08:26.860Z,21.60
2018-12-23T01:21:49.695Z,21.60
2018-12-23T01:35:12.514Z,21.60
2018-12-23T01:48:35.306Z,21.50
2018-12-23T02:01:58.129Z,21.50
2018-12-23T02:15:20.956Z,21.50
2018-12-23T02:28:43.746Z,21.50
2018-12-23T02:42:06.571Z,21.40
2018-12-23T02:55:29.415Z,21.40
2018-12-23T03:08:52.235Z,21.40
2018-12-23T03:22:15.042Z,21.30
2018-12-23T03:35:37.883Z,21.30
2018-12-23T03:49:00.675Z,21.30
2018-12-23T04:02:23.479Z,21.40
2018-12-23T04:15:46.337Z,21.30
2018-12-23T04:29:09.095Z,21.30
2018-12-23T04:42:31.945Z,21.30
2018-12-23T04:55:54.727Z,21.30
2018-12-23T05:09:17.562Z,21.30
2018-12-23T05:22:40.478Z,21.30
2018-12-23T05:36:03.175Z,21.30
2018-12-23T05:49:26.031Z,21.30
2018-12-23T06:02:48.809Z,21.30
2018-12-23T06:16:11.605Z,21.20
2018-12-23T06:29:34.425Z,21.20
2018-12-23T06:42:57.277Z,20.90
2018-12-23T06:56:20.066Z,21.20
2018-12-23T07:22:44.580Z,21.20
2018-12-23T07:35:51.728Z,21.20
2018-12-23T07:48:58.842Z,21.20
2018-12-23T08:02:05.966Z,21.60
2018-12-23T08:15:13.072Z,22.20
2018-12-23T08:28:20.201Z,22.20
2018-12-23T08:41:44.303Z,22.50
2018-12-23T08:55:07.121Z,22.60
2018-12-23T09:08:29.927Z,22.60
2018-12-23T09:21:52.759Z,22.40
2018-12-23T09:35:15.630Z,22.40
2018-12-23T09:48:38.376Z,22.50
2018-12-23T10:02:01.205Z,22.40
2018-12-23T10:15:24.025Z,22.30
2018-12-23T10:28:46.826Z,22.40
2018-12-23T10:42:09.647Z,22.40
2018-12-23T10:55:32.458Z,22.50
2018-12-23T11:08:55.310Z,21.40
2018-12-23T11:22:18.089Z,21.90
2018-12-23T11:35:40.922Z,21.90
2018-12-23T11:49:03.732Z,22.00
2018-12-23T12:02:26.542Z,22.00
2018-12-23T12:15:49.341Z,22.00
2018-12-23T12:29:12.159Z,21.90
2018-12-23T12:42:34.965Z,21.80
2018-12-23T12:55:57.784Z,21.60
2018-12-23T13:09:20.620Z,21.50
2018-12-23T13:22:43.451Z,21.30
2018-12-23T13:36:06.247Z,21.30
2018-12-23T13:49:29.079Z,21.30
2018-12-23T14:02:51.893Z,21.30
2018-12-23T14:16:14.734Z,21.20
2018-12-23T14:29:37.516Z,21.10
2018-12-23T14:43:00.345Z,21.10
2018-12-23T14:56:23.152Z,21.10
2018-12-23T15:09:45.976Z,21.00
2018-12-23T15:23:10.505Z,21.00
2018-12-23T15:36:31.613Z,20.90
2018-12-23T15:49:54.458Z,20.90
2018-12-23T16:03:17.211Z,20.80
2018-12-23T16:16:40.057Z,20.70
2018-12-23T16:30:02.921Z,20.80
2018-12-23T16:43:25.657Z,21.10
2018-12-23T16:56:48.503Z,21.80
2018-12-23T17:10:11.294Z,22.20
2018-12-23T17:23:34.129Z,22.50
2018-12-23T17:36:56.921Z,22.50
2018-12-23T17:50:19.761Z,22.50
2018-12-23T18:03:42.544Z,22.40
2018-12-23T18:17:05.432Z,22.50
2018-12-23T18:30:28.198Z,22.50
2018-12-23T18:56:52.773Z,22.30
2018-12-23T19:09:59.941Z,22.50
2018-12-23T19:23:07.119Z,22.40
2018-12-23T19:36:14.293Z,22.50
2018-12-23T19:49:21.516Z,22.40
2018-12-23T20:02:28.698Z,22.50
2018-12-23T20:15:52.433Z,22.20
2018-12-23T20:29:15.347Z,22.50
2018-12-23T20:42:38.093Z,22.60
2018-12-23T20:56:00.900Z,22.60
2018-12-23T21:09:23.691Z,22.70
2018-12-23T21:35:48.139Z,22.80
2018-12-23T21:48:55.542Z,22.70
2018-12-23T22:15:07.502Z,22.10
2018-12-23T22:28:14.712Z,22.20
2018-12-23T22:41:21.870Z,22.10
2018-12-23T22:54:29.025Z,22.00
2018-12-23T23:07:36.302Z,22.10
2018-12-23T23:20:43.430Z,22.10
2018-12-23T23:34:07.249Z,22.00
2018-12-23T23:47:30.242Z,22.00
